Time;durP1;ratioP1;P1;durP2;ratioP2;P2;SDS_P1;SDS_P2;PMS_P1;PMS_P2;Temp;Humidity;BMP_temperature;BMP_pressure;BME280_temperature;BME280_humidity;BME280_pressure;Samples;Min_cycle;Max_cycle;Signal;HPM_P1;HPM_P2
2021/05/19 00:00:08;;;;;;;22.58;11.38;;;14.50;99.90;;;14.86;75.67;101415.53;5114511;28;20427;-82
2021/05/19 00:02:37;;;;;;;22.73;11.90;;;14.50;99.90;;;14.87;75.71;101424.38;5114127;28;20059;-81
2021/05/19 00:05:06;;;;;;;21.05;10.25;;;14.40;99.90;;;14.80;75.85;101414.72;5114450;28;20043;-81
2021/05/19 00:07:34;;;;;;;27.35;10.82;;;14.40;99.90;;;14.78;75.83;101406.75;5114639;28;20051;-82
2021/05/19 00:10:03;;;;;;;31.42;11.05;;;14.40;99.90;;;14.78;75.67;101412.09;5114397;28;20121;-81
2021/05/19 00:12:32;;;;;;;20.23;9.85;;;14.40;99.90;;;14.80;75.71;101410.28;5114223;28;20058;-82
2021/05/19 00:15:00;;;;;;;19.80;10.65;;;14.40;99.90;;;14.82;75.38;101407.59;5114329;28;20036;-81
2021/05/19 00:17:28;;;;;;;20.48;10.85;;;14.40;99.90;;;14.80;75.32;101410.28;5096054;28;20408;-81
2021/05/19 00:19:56;;;;;;;20.50;9.80;;;14.40;99.90;;;14.80;75.20;101406.72;5095934;28;20056;-81
2021/05/19 00:22:24;;;;;;;18.83;8.82;;;14.40;99.90;;;14.80;75.02;101410.28;5113521;28;20047;-78
2021/05/19 00:24:52;;;;;;;17.25;8.80;;;14.40;99.90;;;14.77;74.87;101404.13;5113562;28;20068;-81
2021/05/19 00:27:20;;;;;;;21.17;8.93;;;14.40;99.90;;;14.77;75.07;101407.63;5113667;28;20049;-82
2021/05/19 00:29:50;;;;;;;19.92;8.77;;;14.40;99.90;;;14.47;74.59;101346.81;5095683;28;20434;-82
2021/05/19 00:32:18;;;;;;;15.55;7.78;;;14.50;99.90;;;14.80;74.40;101404.94;5114000;28;20052;-81
2021/05/19 00:34:48;;;;;;;14.43;7.57;;;14.50;99.90;;;14.84;74.23;101403.13;5113535;28;20059;-82
2021/05/19 00:37:17;;;;;;;17.92;7.68;;;14.50;99.90;;;14.83;73.88;101406.66;5113767;28;20074;-82
2021/05/19 00:39:45;;;;;;;21.20;8.02;;;14.40;99.90;;;14.72;73.78;101385.53;5113614;28;20044;-81
2021/05/19 00:42:15;;;;;;;16.50;7.75;;;14.40;99.90;;;14.68;73.90;101399.78;5113846;28;20539;-81
2021/05/19 00:44:44;;;;;;;19.38;8.45;;;14.40;99.90;;;14.72;74.26;101395.28;5113989;28;20427;-81
2021/05/19 00:47:29;;;;;;;22.85;8.70;;;14.30;99.90;;;14.65;74.59;101396.28;5095847;28;20120;-81
2021/05/19 00:49:58;;;;;;;24.35;9.23;;;14.30;99.90;;;14.56;74.95;101378.63;5095498;28;20058;-81
2021/05/19 00:52:27;;;;;;;24.23;9.25;;;14.30;99.90;;;14.61;75.31;101376.81;5095179;28;20051;-81
2021/05/19 00:54:56;;;;;;;23.90;9.30;;;14.30;99.90;;;14.66;75.18;101390.94;5113891;28;20135;-82
2021/05/19 00:57:25;;;;;;;22.33;9.38;;;14.20;99.90;;;14.67;75.17;101386.50;5094964;28;20073;-81
2021/05/19 00:59:53;;;;;;;24.85;9.90;;;14.30;99.90;;;14.63;75.27;101387.44;5091459;28;20056;-82
2021/05/19 01:02:29;;;;;;;20.50;10.05;;;14.30;99.90;;;14.63;75.22;101387.44;5091897;28;20048;-81
2021/05/19 01:04:57;;;;;;;22.48;9.80;;;14.30;99.90;;;14.58;75.11;101384.81;5091760;28;20048;-81
2021/05/19 01:10:27;;;;;;;25.45;11.38;;;14.20;99.90;;;14.59;75.43;101383.03;5092739;28;20036;-81
2021/05/19 01:12:56;;;;;;;24.52;10.65;;;14.20;99.90;;;14.62;75.16;101378.53;5091825;28;20413;-81
2021/05/19 01:15:24;;;;;;;28.95;10.93;;;14.20;99.90;;;14.58;75.05;101383.91;5092912;28;20414;-82
2021/05/19 01:17:53;;;;;;;26.58;11.55;;;14.30;99.90;;;14.59;75.53;101383.94;5093034;28;20044;-81
2021/05/19 01:20:21;;;;;;;32.60;12.02;;;14.20;99.90;;;14.56;75.34;101383.06;5092992;28;20055;-80
2021/05/19 01:22:51;;;;;;;28.00;13.10;;;14.20;99.90;;;14.56;75.40;101377.72;5091974;28;20056;-82
2021/05/19 01:25:19;;;;;;;25.95;11.98;;;14.20;99.90;;;14.54;75.41;101379.56;5091481;28;20055;-81
2021/05/19 01:27:52;;;;;;;27.92;13.23;;;14.20;99.90;;;14.53;75.36;101384.00;5091616;28;20071;-81
2021/05/19 01:30:22;;;;;;;35.40;13.63;;;14.20;99.90;;;14.42;75.53;101377.91;5091559;28;20050;-81
2021/05/19 01:32:51;;;;;;;27.27;12.23;;;14.10;99.90;;;14.44;75.93;101387.63;5091679;28;20059;-82
2021/05/19 01:35:19;;;;;;;25.67;12.30;;;14.00;99.90;;;14.41;76.04;101377.03;5095210;28;20093;-81
2021/05/19 01:37:48;;;;;;;26.48;12.40;;;14.00;99.90;;;14.41;76.03;101384.13;5097056;28;20469;-81
2021/05/19 01:40:20;;;;;;;29.20;13.15;;;14.00;99.90;;;14.37;76.07;101379.75;5095558;28;20062;-82
2021/05/19 01:42:50;;;;;;;31.02;13.05;;;14.00;99.90;;;14.32;75.88;101381.59;5095421;28;20143;-82
2021/05/19 01:45:35;;;;;;;26.92;12.38;;;13.90;99.90;;;13.69;75.93;101268.75;5095396;28;20044;-81
2021/05/19 01:48:05;;;;;;;32.05;14.40;;;13.90;99.90;;;14.25;76.27;101375.41;5096939;28;20048;-80
2021/05/19 01:50:33;;;;;;;29.88;13.75;;;13.90;99.90;;;14.22;76.33;101379.91;5096601;28;20052;-80
2021/05/19 01:53:04;;;;;;;31.88;13.57;;;13.80;99.90;;;14.21;76.19;101376.34;5096311;28;20494;-81
2021/05/19 01:55:33;;;;;;;31.15;13.82;;;13.80;99.90;;;14.17;76.29;101376.38;5095249;28;20784;-81
2021/05/19 01:58:01;;;;;;;26.65;13.18;;;13.80;99.90;;;14.18;76.29;101375.50;5095233;28;20400;-81
2021/05/19 02:00:31;;;;;;;25.93;14.17;;;13.80;99.90;;;14.19;75.96;101375.47;5095054;28;20091;-82
2021/05/19 02:03:02;;;;;;;28.02;13.30;;;13.80;99.90;;;14.19;76.13;101371.94;5096277;28;20328;-81
2021/05/19 02:05:35;;;;;;;25.75;13.25;;;13.80;99.90;;;14.09;76.08;101349.00;5095008;28;20139;-82
2021/05/19 02:08:07;;;;;;;34.35;14.48;;;13.80;99.90;;;14.19;75.58;101369.28;5096366;28;20044;-80
2021/05/19 02:10:42;;;;;;;26.70;13.32;;;13.80;99.90;;;14.15;75.72;101372.88;5094748;28;20052;-81
2021/05/19 02:13:12;;;;;;;25.58;12.88;;;13.70;99.90;;;14.15;75.42;101372.88;5096256;28;20051;-81
2021/05/19 02:15:40;;;;;;;29.13;13.65;;;13.80;99.90;;;14.16;75.42;101370.22;5096159;28;20052;-81
2021/05/19 02:18:11;;;;;;;27.05;13.52;;;13.80;99.90;;;14.15;75.39;101375.56;5095117;28;20044;-82
2021/05/19 02:20:40;;;;;;;28.73;13.45;;;13.80;99.90;;;14.18;75.24;101371.06;5094726;28;20067;-79
2021/05/19 02:23:08;;;;;;;26.52;13.95;;;13.80;99.90;;;14.13;74.86;101358.72;5096003;28;20040;-81
2021/05/19 02:25:36;;;;;;;29.42;14.10;;;13.80;99.90;;;14.18;74.82;101372.84;5095780;28;20499;-81
2021/05/19 02:28:06;;;;;;;34.15;14.23;;;13.80;99.90;;;14.17;74.88;101371.06;5094582;28;20071;-82
2021/05/19 02:30:46;;;;;;;31.27;14.50;;;13.80;99.90;;;14.17;74.56;101373.72;5094592;28;20146;-80
2021/05/19 02:33:21;;;;;;;25.27;13.25;;;13.80;99.90;;;14.18;74.42;101370.19;5094541;28;20048;-82
2021/05/19 02:35:53;;;;;;;29.52;13.27;;;13.80;99.90;;;14.15;74.23;101364.91;5095631;28;20055;-82
2021/05/19 02:38:21;;;;;;;27.00;13.07;;;13.80;99.90;;;14.16;74.33;101367.53;5094390;28;20054;-82
2021/05/19 02:40:50;;;;;;;24.83;13.57;;;13.80;99.90;;;13.44;74.09;101254.84;5095673;28;20040;-81
2021/05/19 02:43:19;;;;;;;22.90;12.88;;;13.80;99.90;;;14.01;74.39;101366.81;5094253;28;20044;-81
2021/05/19 02:45:47;;;;;;;22.20;12.52;;;13.70;99.90;;;13.89;74.24;101361.63;5094644;28;20047;-82
2021/05/19 02:48:15;;;;;;;27.85;13.90;;;13.70;99.90;;;14.07;74.01;101369.44;5095209;28;20507;-81
2021/05/19 02:50:45;;;;;;;27.55;13.98;;;13.70;99.90;;;14.06;74.31;101381.84;5094250;28;20052;-81
2021/05/19 02:53:14;;;;;;;23.25;12.82;;;13.70;99.90;;;13.99;74.23;101376.59;5094091;28;20497;-81
2021/05/19 02:55:43;;;;;;;22.90;13.23;;;13.60;99.90;;;13.38;74.45;101267.31;5095581;28;20051;-82
2021/05/19 02:58:11;;;;;;;27.88;14.10;;;13.60;99.90;;;14.02;74.24;101379.22;5095334;28;20401;-81
2021/05/19 03:00:40;;;;;;;21.65;12.57;;;13.60;99.90;;;13.73;74.27;101328.09;5115199;28;20047;-81
2021/05/19 03:03:08;;;;;;;24.70;13.07;;;13.60;99.90;;;14.03;74.24;101373.88;5115620;28;20046;-82
2021/05/19 03:05:36;;;;;;;25.55;13.75;;;13.60;99.90;;;14.06;74.02;101371.19;5115458;28;20039;-81
2021/05/19 03:08:05;;;;;;;22.80;13.48;;;13.70;99.90;;;14.03;74.42;101376.53;5115517;28;20125;-82
2021/05/19 03:10:34;;;;;;;26.83;13.18;;;13.70;99.90;;;14.05;74.39;101377.41;5115460;28;20044;-82
2021/05/19 03:13:03;;;;;;;22.45;12.90;;;13.70;99.90;;;13.41;74.36;101277.94;5097129;28;20056;-82
2021/05/19 03:15:32;;;;;;;25.98;12.68;;;13.70;99.90;;;14.10;74.09;101364.06;5097097;28;20538;-82
2021/05/19 03:18:01;;;;;;;21.45;13.18;;;13.70;99.90;;;14.14;74.15;101373.78;5115312;28;20043;-81
2021/05/19 03:20:29;;;;;;;26.65;12.80;;;13.70;99.90;;;14.13;74.29;101377.34;5114961;28;20375;-80
2021/05/19 03:22:58;;;;;;;26.00;13.23;;;13.80;99.90;;;14.10;74.60;101369.38;5114828;28;20051;-82
2021/05/19 03:25:26;;;;;;;23.23;12.02;;;13.80;99.90;;;13.93;75.13;101358.03;5114657;28;20040;-81
2021/05/19 03:27:54;;;;;;;22.98;12.88;;;13.70;99.90;;;13.99;75.54;101368.63;5114779;28;20089;-79
2021/05/19 03:30:23;;;;;;;23.75;12.93;;;13.60;99.90;;;14.00;75.90;101359.72;5115021;28;20392;-81
2021/05/19 03:32:52;;;;;;;23.75;13.27;;;13.60;99.90;;;14.00;75.93;101365.94;5115011;28;20096;-82
2021/05/19 03:35:20;;;;;;;23.85;12.32;;;13.60;99.90;;;14.01;76.32;101372.16;5115152;28;20046;-81
2021/05/19 03:37:49;;;;;;;21.98;12.27;;;13.60;99.90;;;13.77;76.50;101346.69;5114904;28;20119;-82
2021/05/19 03:40:17;;;;;;;20.33;11.98;;;13.60;99.90;;;13.81;77.04;101348.41;5096599;28;20401;-81
2021/05/19 03:42:46;;;;;;;24.10;12.60;;;13.60;99.90;;;13.76;77.63;101354.69;5114683;28;20070;-81
2021/05/19 03:45:19;;;;;;;20.60;12.15;;;13.50;99.90;;;13.81;77.71;101364.38;5114366;28;20386;-82
2021/05/19 03:47:50;;;;;;;24.55;12.77;;;13.50;99.90;;;13.86;77.86;101367.00;5114801;28;20051;-81
2021/05/19 03:50:20;;;;;;;24.98;14.02;;;13.40;99.90;;;13.85;78.16;101368.75;5114730;28;20048;-83
2021/05/19 03:52:48;;;;;;;26.55;13.55;;;13.50;99.90;;;13.79;78.24;101368.81;5114718;28;20040;-82
2021/05/19 03:55:16;;;;;;;29.00;13.85;;;13.50;99.90;;;13.83;78.06;101373.22;5114449;28;20366;-82
2021/05/19 03:57:44;;;;;;;26.23;14.35;;;13.50;99.90;;;13.85;78.12;101367.88;5113602;28;20044;-82
2021/05/19 04:00:18;;;;;;;28.45;14.93;;;13.50;99.90;;;13.66;78.34;101343.25;5114545;28;20493;-80
2021/05/19 04:02:49;;;;;;;25.00;14.65;;;13.50;99.90;;;13.78;78.63;101372.34;5114520;28;20047;-82
2021/05/19 04:05:18;;;;;;;;;;;13.50;99.90;;;13.61;79.08;101362.78;5096483;28;20404;-83
2021/05/19 04:07:49;;;;;;;26.02;15.90;;;13.40;99.90;;;13.79;79.06;101370.59;5114087;28;20319;-82
2021/05/19 04:10:17;;;;;;;26.73;14.68;;;13.40;99.90;;;13.77;79.09;101373.25;5096063;28;20052;-80
2021/05/19 04:12:48;;;;;;;31.65;16.70;;;13.40;99.90;;;13.74;79.02;101375.06;5114109;28;20374;-82
2021/05/19 04:15:17;;;;;;;27.38;16.08;;;13.40;99.90;;;13.75;79.56;101364.41;5114224;28;20044;-82
2021/05/19 04:17:45;;;;;;;31.67;17.35;;;13.40;99.90;;;13.66;79.73;101359.19;5114141;28;20054;-81
2021/05/19 04:20:15;;;;;;;27.60;18.30;;;13.30;99.90;;;13.72;79.60;101358.25;5114112;28;20044;-80
2021/05/19 04:22:43;;;;;;;33.22;18.52;;;13.30;99.90;;;13.57;80.03;101354.84;5114032;28;20052;-76
2021/05/19 04:25:16;;;;;;;41.80;19.80;;;13.30;99.90;;;13.54;80.19;101362.84;5113908;28;20108;-75
2021/05/19 04:27:45;;;;;;;38.50;20.27;;;13.20;99.90;;;13.52;80.70;101356.66;5113981;28;20409;-80
2021/05/19 04:30:15;;;;;;;37.28;21.45;;;13.20;99.90;;;13.56;80.84;101362.81;5095620;28;20048;-79
2021/05/19 04:32:43;;;;;;;39.47;20.77;;;13.30;99.90;;;13.53;80.85;101363.72;5113858;28;20101;-78
2021/05/19 04:35:13;;;;;;;38.75;21.40;;;13.30;99.90;;;13.57;81.15;101368.13;5113508;28;20043;-76
2021/05/19 04:37:41;;;;;;;39.92;22.67;;;13.20;99.90;;;13.54;81.43;101360.19;5113567;28;20110;-79
2021/05/19 04:40:11;;;;;;;37.95;23.25;;;13.30;99.90;;;13.45;81.42;101341.63;5114005;28;20049;-76
2021/05/19 04:42:41;;;;;;;43.63;22.93;;;13.30;99.90;;;13.62;81.60;101376.06;5113525;28;20097;-79
2021/05/19 04:45:10;;;;;;;39.70;23.27;;;13.30;99.90;;;13.56;81.49;101374.34;5113723;28;20097;-78
2021/05/19 04:47:38;;;;;;;41.45;23.48;;;13.30;99.90;;;13.63;82.03;101380.47;5113511;28;20035;-82
2021/05/19 04:50:09;;;;;;;37.22;24.10;;;13.30;99.90;;;13.65;81.93;101376.03;5113626;28;20048;-80
2021/05/19 04:52:37;;;;;;;38.35;23.55;;;13.30;99.90;;;13.77;81.66;101373.25;5113654;28;20040;-80
2021/05/19 04:55:07;;;;;;;44.97;24.90;;;13.40;99.90;;;13.79;81.55;101381.22;5113536;28;20142;-81
2021/05/19 04:57:37;;;;;;;41.92;26.08;;;13.40;99.90;;;13.80;81.25;101372.38;5113237;28;20044;-81
2021/05/19 05:00:08;;;;;;;39.28;24.05;;;13.50;99.90;;;13.82;81.49;101378.56;5113179;28;20079;-81
2021/05/19 05:02:37;;;;;;;36.65;22.55;;;13.50;99.90;;;13.81;81.61;101385.63;5113565;28;20051;-80
2021/05/19 05:05:07;;;;;;;36.95;23.02;;;13.50;99.90;;;13.77;81.31;101383.00;5113456;28;20050;-81
2021/05/19 05:07:35;;;;;;;40.25;23.80;;;13.40;99.90;;;13.66;81.39;101382.22;5113356;28;20047;-81
2021/05/19 05:10:05;;;;;;;41.10;24.13;;;13.40;99.90;;;13.78;81.56;101380.31;5112902;28;20036;-80
2021/05/19 05:12:33;;;;;;;40.95;23.70;;;13.50;99.90;;;13.80;81.71;101383.00;5113957;28;20396;-81
2021/05/19 05:15:01;;;;;;;36.85;23.13;;;13.40;99.90;;;13.85;81.54;101381.16;5113315;28;20051;-82
2021/05/19 05:17:30;;;;;;;39.05;23.27;;;13.50;99.90;;;13.79;81.73;101384.78;5113048;28;20040;-81
2021/05/19 05:19:58;;;;;;;41.05;22.08;;;13.50;99.90;;;13.85;81.86;101384.72;5094732;28;20043;-82
2021/05/19 05:22:26;;;;;;;32.22;21.95;;;13.50;99.90;;;13.88;81.95;101384.66;5113224;28;20127;-82
2021/05/19 05:24:55;;;;;;;41.92;22.90;;;13.50;99.90;;;13.84;81.93;101382.06;5113248;28;20070;-81
2021/05/19 05:27:23;;;;;;;36.15;21.35;;;13.50;99.90;;;13.86;82.08;101377.63;5095221;28;20142;-79
2021/05/19 05:29:51;;;;;;;38.83;21.40;;;13.50;99.90;;;13.88;82.27;101381.16;5114628;28;20043;-82
2021/05/19 05:32:19;;;;;;;37.67;23.73;;;13.50;99.90;;;13.94;81.96;101381.06;5114267;28;20105;-80
2021/05/19 05:34:49;;;;;;;37.55;22.77;;;13.60;99.90;;;14.01;81.67;101388.09;5114106;28;20047;-81
2021/05/19 05:37:18;;;;;;;39.42;23.08;;;13.60;99.90;;;14.04;81.94;101388.94;5114229;28;20046;-82
2021/05/19 05:39:46;;;;;;;43.35;23.20;;;13.70;99.90;;;13.82;81.82;101365.25;5095470;28;20116;-81
2021/05/19 05:42:14;;;;;;;39.78;22.33;;;13.60;99.90;;;14.05;82.11;101393.34;5113323;28;20410;-82
2021/05/19 05:44:41;;;;;;;38.38;22.48;;;13.70;99.90;;;14.04;82.21;101393.38;5113495;28;20058;-82
2021/05/19 05:47:10;;;;;;;40.88;23.23;;;13.70;99.90;;;14.05;82.04;101389.84;5113083;28;20049;-81
2021/05/19 05:49:38;;;;;;;35.85;23.42;;;13.70;99.90;;;14.15;82.17;101392.38;5113340;28;20054;-82
2021/05/19 05:52:07;;;;;;;40.33;22.45;;;13.80;99.90;;;14.08;82.04;101397.78;5094764;28;20040;-82
2021/05/19 05:54:35;;;;;;;42.00;22.30;;;13.70;99.90;;;14.08;82.35;101395.13;5094456;28;20044;-83
2021/05/19 05:57:03;;;;;;;39.33;21.63;;;13.70;99.90;;;14.04;82.47;101394.28;5113400;28;20047;-82
2021/05/19 05:59:31;;;;;;;38.72;21.95;;;13.70;99.90;;;14.03;82.07;101392.50;5112315;28;20052;-81
2021/05/19 06:01:59;;;;;;;35.25;20.58;;;13.70;99.90;;;14.14;81.99;101395.94;5112977;28;20075;-82
2021/05/19 06:04:27;;;;;;;30.17;20.80;;;13.70;99.90;;;14.18;82.05;101394.13;5112989;28;20461;-82
2021/05/19 06:06:55;;;;;;;36.20;20.52;;;13.80;99.90;;;14.30;81.70;101402.03;5112807;28;20160;-82
2021/05/19 06:09:24;;;;;;;38.83;20.00;;;13.90;99.90;;;14.36;81.76;101396.63;5113154;28;20495;-82
2021/05/19 06:11:52;;;;;;;34.88;20.25;;;14.00;99.90;;;14.43;81.43;101398.31;5112896;28;20055;-81
2021/05/19 06:14:21;;;;;;;36.22;20.13;;;14.10;99.90;;;14.52;81.24;101400.84;5112789;28;20051;-82
2021/05/19 06:16:49;;;;;;;37.28;20.50;;;14.20;99.90;;;14.64;81.03;101397.16;5112820;28;20048;-81
2021/05/19 06:19:17;;;;;;;42.35;20.98;;;14.30;99.90;;;14.68;81.07;101399.78;5094379;28;20109;-81
2021/05/19 06:21:45;;;;;;;36.72;20.35;;;14.30;99.90;;;14.70;81.26;101392.66;5115206;28;20046;-81
2021/05/19 06:24:13;;;;;;;35.38;21.10;;;14.40;99.90;;;14.80;80.72;101394.28;5098160;28;20138;-80
2021/05/19 06:26:42;;;;;;;40.75;19.92;;;14.40;99.90;;;14.84;81.11;101398.69;5116127;28;20492;-82
2021/05/19 06:29:11;;;;;;;40.15;19.38;;;14.50;99.90;;;14.95;80.58;101394.09;5115928;28;20557;-82
2021/05/19 06:31:39;;;;;;;36.83;17.90;;;14.60;99.90;;;15.07;80.27;101401.91;5116218;28;20050;-82
2021/05/19 06:34:08;;;;;;;29.08;16.73;;;14.70;99.90;;;15.13;80.08;101403.59;5115877;28;20589;-81
2021/05/19 06:36:38;;;;;;;35.45;17.23;;;14.80;99.90;;;15.17;78.85;101405.31;5115738;28;20624;-82
2021/05/19 06:39:06;;;;;;;36.95;18.05;;;14.80;99.90;;;15.25;79.46;101406.94;5115965;28;20104;-79
2021/05/19 06:41:34;;;;;;;34.92;15.43;;;14.90;99.90;;;15.24;78.52;101407.88;5115751;28;20504;-82
2021/05/19 06:44:04;;;;;;;31.00;14.90;;;14.90;99.90;;;15.28;77.90;101414.03;5115667;28;20408;-83
2021/05/19 06:46:32;;;;;;;24.20;13.30;;;14.90;99.90;;;15.23;77.51;101403.44;5115767;28;20050;-82
2021/05/19 06:49:03;;;;;;;37.03;15.13;;;14.90;99.90;;;15.30;77.72;101413.13;5097801;28;20051;-82
2021/05/19 06:51:31;;;;;;;32.33;14.15;;;15.00;99.90;;;15.36;77.39;101418.34;5115536;28;20051;-82
2021/05/19 06:53:59;;;;;;;26.05;12.55;;;15.00;99.90;;;15.38;77.08;101411.22;5115540;28;20055;-83
2021/05/19 06:56:28;;;;;;;23.38;11.73;;;15.00;99.90;;;15.31;76.33;101414.88;5097164;28;20047;-82
2021/05/19 06:58:56;;;;;;;28.10;10.65;;;15.00;99.90;;;15.39;76.23;101415.63;5115377;28;20047;-82
2021/05/19 07:01:25;;;;;;;22.00;11.18;;;15.00;99.90;;;15.35;75.97;101416.59;5115371;28;20051;-82
2021/05/19 07:03:53;;;;;;;30.08;11.50;;;15.00;99.90;;;14.85;76.06;101315.19;5115652;28;20052;-82
2021/05/19 07:06:22;;;;;;;27.02;11.57;;;15.10;99.90;;;14.85;75.49;101303.66;5097163;28;20062;-82
2021/05/19 07:08:50;;;;;;;23.27;9.93;;;15.10;99.90;;;15.51;75.34;101411.03;5097148;28;20052;-82
2021/05/19 07:11:18;;;;;;;20.70;9.68;;;15.10;99.90;;;15.50;74.88;101410.19;5115306;28;20081;-81
2021/05/19 07:13:46;;;;;;;20.35;8.68;;;15.20;99.90;;;15.44;74.69;101428.06;5115388;28;20109;-80
2021/05/19 07:16:18;;;;;;;29.95;11.80;;;15.10;99.90;;;15.49;74.70;101412.84;5097023;28;20047;-84
2021/05/19 07:18:47;;;;;;;46.85;26.15;;;15.10;99.90;;;15.49;74.87;101412.84;5093447;28;20054;-78
2021/05/19 07:21:15;;;;;;;29.52;14.32;;;15.10;99.90;;;15.16;74.58;101420.44;5076471;28;20051;-77
2021/05/19 07:23:43;;;;;;;18.63;11.52;;;14.90;99.90;;;15.03;73.17;101423.28;5095070;28;20432;-83
2021/05/19 07:26:11;;;;;;;25.73;13.02;;;14.70;99.90;;;15.01;73.50;101423.31;5076470;28;20040;-83
2021/05/19 07:28:40;;;;;;;19.50;10.23;;;14.60;99.90;;;14.87;73.26;101422.59;5076458;28;20056;-82
2021/05/19 07:31:08;;;;;;;15.85;8.80;;;14.50;99.90;;;14.80;72.74;101426.25;5076456;28;20058;-80
2021/05/19 07:33:36;;;;;;;21.70;11.35;;;14.40;99.90;;;14.75;73.02;101422.75;5094846;28;20040;-76
2021/05/19 07:36:06;;;;;;;16.55;7.60;;;14.40;99.90;;;14.48;72.93;101387.63;5094264;28;20413;-76
2021/05/19 07:38:34;;;;;;;13.80;6.15;;;14.30;99.90;;;14.30;71.67;101429.50;5094605;28;20043;-76
2021/05/19 07:41:02;;;;;;;17.52;7.88;;;14.20;99.90;;;14.35;72.33;101429.44;5076323;28;20079;-75
2021/05/19 07:43:31;;;;;;;19.55;9.00;;;14.10;99.90;;;14.37;73.90;101420.56;5076146;28;20040;-76
2021/05/19 07:45:59;;;;;;;16.65;10.50;;;14.10;99.90;;;14.56;73.71;101426.53;5094127;28;20134;-76
2021/05/19 07:48:26;;;;;;;19.25;8.05;;;14.10;99.90;;;14.64;73.38;101435.31;5094260;28;20488;-76
2021/05/19 07:50:52;;;;;;;22.60;11.45;;;14.30;99.90;;;14.54;75.37;101428.34;5076321;28;20054;-78
2021/05/19 07:53:20;;;;;;;17.85;8.45;;;14.30;99.90;;;14.52;75.42;101423.97;5094200;28;20052;-79
2021/05/19 07:55:50;;;;;;;25.55;13.10;;;14.20;99.90;;;14.46;76.47;101431.09;5075883;28;20048;-80
2021/05/19 07:58:19;;;;;;;26.52;14.05;;;14.20;99.90;;;14.35;77.89;101427.69;5094116;28;20052;-80
2021/05/19 08:03:33;;;;;;;26.52;13.77;;;13.90;99.90;;;14.18;79.52;101428.72;5088626;28;20501;-80
2021/05/19 08:06:00;;;;;;;26.38;14.32;;;13.90;99.90;;;13.93;80.17;101396.16;5093752;28;20044;-80
2021/05/19 08:08:27;;;;;;;26.40;15.02;;;13.90;99.90;;;14.31;80.54;101435.69;5093922;28;20048;-80
2021/05/19 08:10:55;;;;;;;22.77;13.88;;;13.90;99.90;;;14.46;80.47;101440.84;5093989;28;20481;-79
2021/05/19 08:13:22;;;;;;;26.02;12.88;;;14.00;99.90;;;14.43;80.88;101432.91;5093809;28;20040;-80
2021/05/19 08:15:49;;;;;;;22.00;12.10;;;14.10;99.90;;;14.46;80.85;101451.50;5093740;28;20056;-80
2021/05/19 08:18:18;;;;;;;13.20;6.72;;;14.10;99.90;;;14.07;79.54;101441.25;5093831;28;20048;-79
2021/05/19 08:20:46;;;;;;;12.45;6.00;;;13.90;99.90;;;14.18;79.62;101440.25;5093788;28;20121;-79
2021/05/19 08:23:15;;;;;;;7.70;5.25;;;13.90;99.90;;;14.26;79.16;101440.16;5093427;28;20068;-81
2021/05/19 08:25:44;;;;;;;8.82;4.90;;;13.90;99.90;;;14.20;78.33;101440.22;5093596;28;20044;-80
2021/05/19 08:28:14;;;;;;;7.63;5.00;;;13.90;99.90;;;13.74;78.24;101340.50;5093691;28;20044;-81
2021/05/19 08:30:42;;;;;;;10.27;4.78;;;14.00;99.90;;;14.39;77.94;101447.16;5093772;28;20048;-79
2021/05/19 08:33:11;;;;;;;6.97;4.38;;;14.10;99.90;;;14.38;77.62;101440.94;5093236;28;20079;-80
2021/05/19 08:35:39;;;;;;;6.63;4.30;;;14.10;99.90;;;14.57;77.19;101449.63;5093209;28;20123;-79
2021/05/19 08:38:07;;;;;;;14.52;7.82;;;14.30;99.90;;;14.42;76.41;101457.75;5093090;28;20044;-76
2021/05/19 08:40:36;;;;;;;66.88;34.17;;;14.20;99.90;;;14.41;75.32;101456.91;5093314;28;20047;-75
2021/05/19 08:43:05;;;;;;;33.78;20.55;;;14.20;99.90;;;14.48;74.69;101456.84;5092914;28;20044;-72
2021/05/19 08:45:33;;;;;;;6.45;5.72;;;14.10;99.90;;;14.30;73.94;101448.13;5093284;28;20130;-72
2021/05/19 08:48:04;;;;;;;7.78;5.63;;;14.00;99.90;;;13.82;73.90;101341.31;5093146;28;20143;-74
2021/05/19 08:50:34;;;;;;;5.78;4.50;;;14.10;99.90;;;14.46;73.52;101456.81;5093300;28;20047;-74
2021/05/19 08:53:09;;;;;;;6.20;4.82;;;14.10;99.90;;;13.76;73.54;101328.09;5093155;28;20040;-71
2021/05/19 08:55:37;;;;;;;11.05;7.20;;;14.10;99.90;;;14.59;73.28;101457.59;5093078;28;20052;-75
2021/05/19 08:58:06;;;;;;;9.02;6.95;;;14.20;99.90;;;14.62;73.16;101458.44;5092828;28;20489;-71
2021/05/19 09:00:34;;;;;;;9.82;6.47;;;14.20;99.90;;;14.57;72.76;101459.38;5074551;28;20121;-73
2021/05/19 09:03:10;;;;;;;8.57;5.38;;;14.20;99.90;;;14.44;72.56;101458.63;5093123;28;20385;-73
2021/05/19 09:05:40;;;;;;;9.95;6.53;;;14.10;99.90;;;14.41;72.98;101461.31;5074745;28;20048;-71
2021/05/19 09:08:10;;;;;;;9.35;6.47;;;14.10;99.90;;;14.53;73.39;101463.88;5092922;28;20093;-67
2021/05/19 09:10:41;;;;;;;8.68;6.30;;;14.10;99.90;;;14.57;72.97;101470.03;5093046;28;20044;-67
2021/05/19 09:13:31;;;;;;;9.70;6.43;;;14.20;99.90;;;14.68;72.75;101469.00;5092660;28;20128;-67
2021/05/19 09:16:01;;;;;;;8.90;6.70;;;14.30;99.90;;;14.74;72.63;101471.59;5092637;28;20044;-66
2021/05/19 09:18:54;;;;;;;7.60;5.05;;;14.40;99.90;;;14.68;72.09;101468.13;5092832;28;20481;-66
2021/05/19 09:21:38;;;;;;;5.50;4.82;;;14.30;99.90;;;14.81;72.27;101467.06;5074149;28;20062;-67
2021/05/19 09:24:11;;;;;;;5.22;4.07;;;14.40;99.90;;;14.94;72.07;101474.88;5092829;28;20056;-62
2021/05/19 09:26:53;;;;;;;4.00;3.60;;;14.50;99.90;;;14.95;72.07;101463.34;5093035;28;20415;-62
2021/05/19 09:29:23;;;;;;;4.43;3.70;;;14.60;99.90;;;14.99;71.98;101481.06;5074675;28;20062;-62
2021/05/19 09:31:55;;;;;;;3.80;3.50;;;14.70;99.90;;;14.85;71.64;101472.34;5092849;28;20127;-62
2021/05/19 09:34:26;;;;;;;4.55;3.92;;;14.60;99.90;;;14.91;72.22;101476.72;5092784;28;20044;-62
2021/05/19 09:37:12;;;;;;;4.10;3.80;;;14.60;99.90;;;14.94;72.77;101476.69;5092727;28;20054;-62
2021/05/19 09:39:49;;;;;;;5.00;4.50;;;14.60;99.90;;;14.87;72.88;101477.66;5092416;28;20089;-62
2021/05/19 09:42:57;;;;;;;6.93;4.18;;;14.60;99.90;;;14.90;73.33;101480.28;5092524;28;20048;-63
2021/05/19 09:45:30;;;;;;;4.38;3.97;;;14.60;99.90;;;14.94;73.64;101487.34;5072832;28;20052;-62
2021/05/19 09:48:00;;;;;;;7.00;4.90;;;14.60;99.90;;;14.92;73.79;101479.38;5074687;28;20055;-62
2021/05/19 09:50:42;;;;;;;5.60;4.50;;;14.60;99.90;;;14.79;73.59;101483.06;5074598;28;20041;-62
2021/05/19 09:53:11;;;;;;;8.05;4.75;;;14.60;99.90;;;14.79;73.81;101492.88;5092668;28;20052;-62
2021/05/19 09:55:42;;;;;;;5.05;4.18;;;14.40;99.90;;;14.83;74.48;101482.13;5075167;28;20048;-62
2021/05/19 09:58:10;;;;;;;;;;;14.50;99.90;;;14.73;74.16;101491.13;5096947;28;20052;-63
2021/05/19 10:00:39;;;;;;;6.38;4.72;;;14.40;99.90;;;14.80;74.37;101494.63;5096214;28;19924;-62
2021/05/19 10:03:15;;;;;;;5.53;4.30;;;14.50;99.90;;;14.63;74.22;101492.16;5096260;28;20055;-63
2021/05/19 10:05:49;;;;;;;6.10;3.60;;;14.30;99.90;;;14.58;73.42;101506.38;5078198;28;20055;-65
2021/05/19 10:08:18;;;;;;;4.15;3.58;;;14.30;99.90;;;14.59;73.40;101502.84;5077710;28;20044;-65
2021/05/19 10:10:46;;;;;;;4.15;3.85;;;14.20;99.90;;;14.57;72.64;101501.97;5096209;28;20044;-65
2021/05/19 10:13:14;;;;;;;96.47;62.13;;;14.20;99.90;;;14.56;72.42;101511.75;5096215;28;20051;-68
2021/05/19 10:15:43;;;;;;;12.85;9.48;;;14.20;99.90;;;14.55;71.29;101504.66;5078137;28;20052;-68
2021/05/19 10:18:18;;;;;;;9.07;5.65;;;14.20;99.90;;;14.28;70.49;101483.66;5077560;28;20046;-69